Aurora, Texas
Current Conditions -  °F | °C
As of 1:53 PM on Sunday 25 Jan 2015 (Local Time) from KAFW Reporting Station
Few Clouds Few Clouds  
Wind Chill: 63°   Ceiling: Unl
Heat Index: 63°   Visibility: 10mi
Dew Point: 26°   Wind: 25mph
Humidity: 25%   Direction: 320°NW
Pressure: 30.04"   Gusts: 33mph
Location:  33.0495°N, 97.45°W
Report Text: KAFW 251953Z 32022G29KT 10SM FEW250 17/M03 A3004 RMK AO2 PK WND 32032/1909 SLP174 T01721033
Loading
Personal Weather Stations






























Interactive Weather Map New forecast layout! Learn more

10-Day Weather Forecast

Advertisements
Track Severe Weather on mobile